sensor_id;sensor_type;location;lat;lon;timestamp;P1;durP1;ratioP1;P2;durP2;ratioP2
69463;SDS011;56665;41.106;16.688;2022-07-29T00:01:42;6.83;;;3.93;;
69463;SDS011;56665;41.106;16.688;2022-07-29T00:04:46;8.48;;;4.13;;
69463;SDS011;56665;41.106;16.688;2022-07-29T00:07:50;4.55;;;3.58;;
69463;SDS011;56665;41.106;16.688;2022-07-29T00:10:54;6.57;;;3.92;;
69463;SDS011;56665;41.106;16.688;2022-07-29T00:13:58;6.07;;;4.10;;
69463;SDS011;56665;41.106;16.688;2022-07-29T00:17:01;7.07;;;4.43;;
69463;SDS011;56665;41.106;16.688;2022-07-29T00:20:05;7.97;;;4.28;;
69463;SDS011;56665;41.106;16.688;2022-07-29T00:23:09;7.95;;;4.43;;
69463;SDS011;56665;41.106;16.688;2022-07-29T00:26:13;6.60;;;4.57;;
69463;SDS011;56665;41.106;16.688;2022-07-29T00:29:17;5.82;;;4.43;;
69463;SDS011;56665;41.106;16.688;2022-07-29T00:32:20;6.53;;;4.27;;
69463;SDS011;56665;41.106;16.688;2022-07-29T00:35:24;6.72;;;4.20;;
69463;SDS011;56665;41.106;16.688;2022-07-29T00:38:50;6.65;;;4.45;;
69463;SDS011;56665;41.106;16.688;2022-07-29T00:41:54;5.20;;;3.92;;
69463;SDS011;56665;41.106;16.688;2022-07-29T00:44:58;6.72;;;4.15;;
69463;SDS011;56665;41.106;16.688;2022-07-29T00:48:02;7.50;;;4.33;;
69463;SDS011;56665;41.106;16.688;2022-07-29T00:51:07;5.78;;;3.90;;
69463;SDS011;56665;41.106;16.688;2022-07-29T00:54:13;6.50;;;4.70;;
69463;SDS011;56665;41.106;16.688;2022-07-29T00:57:16;6.28;;;3.95;;
69463;SDS011;56665;41.106;16.688;2022-07-29T01:00:24;7.30;;;4.20;;
69463;SDS011;56665;41.106;16.688;2022-07-29T01:03:30;6.30;;;3.90;;
69463;SDS011;56665;41.106;16.688;2022-07-29T01:06:33;6.20;;;3.70;;
69463;SDS011;56665;41.106;16.688;2022-07-29T01:09:38;7.10;;;4.03;;
69463;SDS011;56665;41.106;16.688;2022-07-29T01:12:42;7.45;;;4.10;;
69463;SDS011;56665;41.106;16.688;2022-07-29T01:15:49;7.53;;;4.70;;
69463;SDS011;56665;41.106;16.688;2022-07-29T01:19:11;8.17;;;4.83;;
69463;SDS011;56665;41.106;16.688;2022-07-29T01:26:07;7.97;;;5.60;;
69463;SDS011;56665;41.106;16.688;2022-07-29T01:33:04;8.73;;;6.10;;
69463;SDS011;56665;41.106;16.688;2022-07-29T01:36:14;7.33;;;4.60;;
69463;SDS011;56665;41.106;16.688;2022-07-29T01:39:31;8.15;;;5.00;;
69463;SDS011;56665;41.106;16.688;2022-07-29T01:42:38;6.20;;;4.50;;
69463;SDS011;56665;41.106;16.688;2022-07-29T01:45:50;7.25;;;4.68;;
69463;SDS011;56665;41.106;16.688;2022-07-29T01:49:25;6.65;;;4.75;;
69463;SDS011;56665;41.106;16.688;2022-07-29T01:52:31;7.57;;;4.50;;
69463;SDS011;56665;41.106;16.688;2022-07-29T01:55:40;7.38;;;4.25;;
69463;SDS011;56665;41.106;16.688;2022-07-29T01:58:47;7.47;;;4.50;;
69463;SDS011;56665;41.106;16.688;2022-07-29T02:01:53;6.60;;;4.30;;
69463;SDS011;56665;41.106;16.688;2022-07-29T02:04:59;6.38;;;4.57;;
69463;SDS011;56665;41.106;16.688;2022-07-29T02:08:04;6.37;;;4.43;;
69463;SDS011;56665;41.106;16.688;2022-07-29T02:11:09;6.25;;;4.30;;
69463;SDS011;56665;41.106;16.688;2022-07-29T02:14:13;7.60;;;4.43;;
69463;SDS011;56665;41.106;16.688;2022-07-29T02:17:23;7.20;;;4.32;;
69463;SDS011;56665;41.106;16.688;2022-07-29T02:20:29;6.03;;;4.15;;
69463;SDS011;56665;41.106;16.688;2022-07-29T02:23:33;6.90;;;4.37;;
69463;SDS011;56665;41.106;16.688;2022-07-29T02:26:39;7.78;;;4.28;;
69463;SDS011;56665;41.106;16.688;2022-07-29T02:29:45;7.00;;;4.47;;
69463;SDS011;56665;41.106;16.688;2022-07-29T02:32:50;8.30;;;4.43;;
69463;SDS011;56665;41.106;16.688;2022-07-29T02:35:55;7.50;;;4.32;;
69463;SDS011;56665;41.106;16.688;2022-07-29T02:39:00;5.57;;;4.07;;
69463;SDS011;56665;41.106;16.688;2022-07-29T02:42:07;7.00;;;4.20;;
69463;SDS011;56665;41.106;16.688;2022-07-29T02:45:13;7.78;;;4.60;;
69463;SDS011;56665;41.106;16.688;2022-07-29T02:48:16;7.95;;;4.78;;
69463;SDS011;56665;41.106;16.688;2022-07-29T02:51:27;7.15;;;4.78;;
69463;SDS011;56665;41.106;16.688;2022-07-29T02:54:42;8.40;;;4.57;;
69463;SDS011;56665;41.106;16.688;2022-07-29T02:58:01;6.63;;;4.63;;
69463;SDS011;56665;41.106;16.688;2022-07-29T03:01:27;7.93;;;4.63;;
69463;SDS011;56665;41.106;16.688;2022-07-29T03:04:35;6.93;;;4.63;;
69463;SDS011;56665;41.106;16.688;2022-07-29T03:07:43;9.40;;;4.68;;
69463;SDS011;56665;41.106;16.688;2022-07-29T03:10:50;9.40;;;4.90;;
69463;SDS011;56665;41.106;16.688;2022-07-29T03:13:55;8.13;;;4.82;;
69463;SDS011;56665;41.106;16.688;2022-07-29T03:16:59;8.63;;;5.07;;
69463;SDS011;56665;41.106;16.688;2022-07-29T03:20:03;9.05;;;5.38;;
69463;SDS011;56665;41.106;16.688;2022-07-29T03:23:07;8.23;;;4.88;;
69463;SDS011;56665;41.106;16.688;2022-07-29T03:26:12;8.43;;;5.17;;
69463;SDS011;56665;41.106;16.688;2022-07-29T03:29:16;7.50;;;5.10;;
69463;SDS011;56665;41.106;16.688;2022-07-29T03:32:19;9.35;;;5.45;;
69463;SDS011;56665;41.106;16.688;2022-07-29T03:35:23;8.90;;;5.30;;
69463;SDS011;56665;41.106;16.688;2022-07-29T03:38:28;12.77;;;5.53;;
69463;SDS011;56665;41.106;16.688;2022-07-29T03:41:34;10.63;;;5.90;;
69463;SDS011;56665;41.106;16.688;2022-07-29T03:44:42;9.00;;;5.50;;
69463;SDS011;56665;41.106;16.688;2022-07-29T03:47:51;10.93;;;6.10;;
69463;SDS011;56665;41.106;16.688;2022-07-29T03:50:59;9.25;;;5.45;;
69463;SDS011;56665;41.106;16.688;2022-07-29T03:54:03;9.05;;;5.82;;
69463;SDS011;56665;41.106;16.688;2022-07-29T03:57:07;11.57;;;6.90;;
69463;SDS011;56665;41.106;16.688;2022-07-29T04:00:14;11.45;;;6.72;;
69463;SDS011;56665;41.106;16.688;2022-07-29T04:03:21;13.95;;;8.02;;
69463;SDS011;56665;41.106;16.688;2022-07-29T04:06:25;12.18;;;7.60;;
69463;SDS011;56665;41.106;16.688;2022-07-29T04:09:29;13.80;;;7.72;;
69463;SDS011;56665;41.106;16.688;2022-07-29T04:12:33;12.87;;;6.30;;
69463;SDS011;56665;41.106;16.688;2022-07-29T04:15:37;11.10;;;6.07;;
69463;SDS011;56665;41.106;16.688;2022-07-29T04:18:41;12.20;;;6.40;;
69463;SDS011;56665;41.106;16.688;2022-07-29T04:21:45;11.30;;;6.32;;
69463;SDS011;56665;41.106;16.688;2022-07-29T04:24:48;8.07;;;5.50;;
69463;SDS011;56665;41.106;16.688;2022-07-29T04:27:52;9.83;;;6.13;;
69463;SDS011;56665;41.106;16.688;2022-07-29T04:31:06;9.93;;;6.03;;
69463;SDS011;56665;41.106;16.688;2022-07-29T04:34:10;10.93;;;5.95;;
69463;SDS011;56665;41.106;16.688;2022-07-29T04:37:14;11.13;;;6.03;;
69463;SDS011;56665;41.106;16.688;2022-07-29T04:40:18;8.65;;;5.80;;
69463;SDS011;56665;41.106;16.688;2022-07-29T04:43:21;11.00;;;5.97;;
69463;SDS011;56665;41.106;16.688;2022-07-29T04:46:25;8.35;;;5.53;;
69463;SDS011;56665;41.106;16.688;2022-07-29T04:49:29;10.02;;;5.90;;
69463;SDS011;56665;41.106;16.688;2022-07-29T04:52:33;12.27;;;5.57;;
69463;SDS011;56665;41.106;16.688;2022-07-29T04:55:38;13.32;;;6.40;;
69463;SDS011;56665;41.106;16.688;2022-07-29T04:58:42;9.23;;;6.07;;
69463;SDS011;56665;41.106;16.688;2022-07-29T05:01:45;9.52;;;5.97;;
69463;SDS011;56665;41.106;16.688;2022-07-29T05:04:49;10.50;;;6.70;;
69463;SDS011;56665;41.106;16.688;2022-07-29T05:07:53;11.02;;;6.10;;
69463;SDS011;56665;41.106;16.688;2022-07-29T05:10:57;11.05;;;6.70;;
69463;SDS011;56665;41.106;16.688;2022-07-29T05:14:00;10.60;;;7.23;;
69463;SDS011;56665;41.106;16.688;2022-07-29T05:17:04;13.55;;;7.22;;
69463;SDS011;56665;41.106;16.688;2022-07-29T05:20:08;12.55;;;7.07;;
69463;SDS011;56665;41.106;16.688;2022-07-29T05:23:12;11.80;;;7.35;;
69463;SDS011;56665;41.106;16.688;2022-07-29T05:26:17;10.82;;;7.65;;
69463;SDS011;56665;41.106;16.688;2022-07-29T05:29:21;12.93;;;7.43;;
69463;SDS011;56665;41.106;16.688;2022-07-29T05:32:24;14.45;;;8.27;;
69463;SDS011;56665;41.106;16.688;2022-07-29T05:35:28;19.17;;;10.98;;
69463;SDS011;56665;41.106;16.688;2022-07-29T05:38:32;17.17;;;12.32;;
69463;SDS011;56665;41.106;16.688;2022-07-29T05:41:36;16.15;;;11.18;;
69463;SDS011;56665;41.106;16.688;2022-07-29T05:44:40;10.20;;;8.53;;
69463;SDS011;56665;41.106;16.688;2022-07-29T05:47:44;10.63;;;7.22;;
69463;SDS011;56665;41.106;16.688;2022-07-29T05:50:49;13.63;;;7.88;;
69463;SDS011;56665;41.106;16.688;2022-07-29T05:53:53;12.75;;;9.73;;
69463;SDS011;56665;41.106;16.688;2022-07-29T05:56:58;15.15;;;9.98;;
69463;SDS011;56665;41.106;16.688;2022-07-29T06:00:02;10.87;;;8.00;;
69463;SDS011;56665;41.106;16.688;2022-07-29T06:03:15;10.00;;;6.47;;
69463;SDS011;56665;41.106;16.688;2022-07-29T06:06:19;17.05;;;7.07;;
69463;SDS011;56665;41.106;16.688;2022-07-29T06:09:22;9.52;;;5.13;;
69463;SDS011;56665;41.106;16.688;2022-07-29T06:12:26;11.18;;;5.32;;
69463;SDS011;56665;41.106;16.688;2022-07-29T06:15:30;10.70;;;5.37;;
69463;SDS011;56665;41.106;16.688;2022-07-29T06:18:39;7.60;;;5.43;;
69463;SDS011;56665;41.106;16.688;2022-07-29T06:21:43;8.75;;;5.10;;
69463;SDS011;56665;41.106;16.688;2022-07-29T06:24:47;8.70;;;5.22;;
69463;SDS011;56665;41.106;16.688;2022-07-29T06:27:53;6.50;;;5.15;;
69463;SDS011;56665;41.106;16.688;2022-07-29T06:30:57;7.33;;;4.90;;
69463;SDS011;56665;41.106;16.688;2022-07-29T06:34:00;10.23;;;5.13;;
69463;SDS011;56665;41.106;16.688;2022-07-29T06:37:07;5.95;;;4.50;;
69463;SDS011;56665;41.106;16.688;2022-07-29T06:40:12;7.28;;;4.75;;
69463;SDS011;56665;41.106;16.688;2022-07-29T06:43:55;9.10;;;5.00;;
69463;SDS011;56665;41.106;16.688;2022-07-29T06:46:58;10.00;;;5.17;;
69463;SDS011;56665;41.106;16.688;2022-07-29T06:50:03;16.40;;;5.15;;
69463;SDS011;56665;41.106;16.688;2022-07-29T06:53:08;11.18;;;6.35;;
69463;SDS011;56665;41.106;16.688;2022-07-29T06:56:13;7.15;;;5.45;;
69463;SDS011;56665;41.106;16.688;2022-07-29T06:59:16;6.97;;;5.03;;
69463;SDS011;56665;41.106;16.688;2022-07-29T07:02:20;8.33;;;4.90;;
69463;SDS011;56665;41.106;16.688;2022-07-29T07:05:24;9.30;;;4.97;;
69463;SDS011;56665;41.106;16.688;2022-07-29T07:08:27;8.32;;;4.97;;
69463;SDS011;56665;41.106;16.688;2022-07-29T07:11:31;7.65;;;4.63;;
69463;SDS011;56665;41.106;16.688;2022-07-29T07:14:36;7.38;;;5.38;;
69463;SDS011;56665;41.106;16.688;2022-07-29T07:17:40;8.20;;;5.17;;
69463;SDS011;56665;41.106;16.688;2022-07-29T07:20:46;6.57;;;4.95;;
69463;SDS011;56665;41.106;16.688;2022-07-29T07:23:50;7.97;;;5.30;;
69463;SDS011;56665;41.106;16.688;2022-07-29T07:26:56;7.03;;;4.90;;
69463;SDS011;56665;41.106;16.688;2022-07-29T07:30:01;8.00;;;5.22;;
69463;SDS011;56665;41.106;16.688;2022-07-29T07:33:06;8.83;;;5.50;;
69463;SDS011;56665;41.106;16.688;2022-07-29T07:36:11;8.43;;;5.40;;
69463;SDS011;56665;41.106;16.688;2022-07-29T07:39:15;8.40;;;5.90;;
69463;SDS011;56665;41.106;16.688;2022-07-29T07:42:19;9.45;;;6.05;;
69463;SDS011;56665;41.106;16.688;2022-07-29T07:45:23;10.85;;;5.68;;
69463;SDS011;56665;41.106;16.688;2022-07-29T07:48:27;9.13;;;5.70;;
69463;SDS011;56665;41.106;16.688;2022-07-29T07:51:31;8.77;;;5.97;;
69463;SDS011;56665;41.106;16.688;2022-07-29T07:54:35;9.20;;;5.40;;
69463;SDS011;56665;41.106;16.688;2022-07-29T07:57:39;7.65;;;5.00;;
69463;SDS011;56665;41.106;16.688;2022-07-29T08:00:42;10.05;;;5.60;;
69463;SDS011;56665;41.106;16.688;2022-07-29T08:03:46;8.47;;;5.70;;
69463;SDS011;56665;41.106;16.688;2022-07-29T08:06:50;9.70;;;5.88;;
69463;SDS011;56665;41.106;16.688;2022-07-29T08:09:55;9.20;;;6.57;;
69463;SDS011;56665;41.106;16.688;2022-07-29T08:12:59;9.63;;;6.35;;
69463;SDS011;56665;41.106;16.688;2022-07-29T08:16:06;21.52;;;6.47;;
69463;SDS011;56665;41.106;16.688;2022-07-29T08:19:15;11.10;;;5.90;;
69463;SDS011;56665;41.106;16.688;2022-07-29T08:22:19;9.23;;;6.18;;
69463;SDS011;56665;41.106;16.688;2022-07-29T08:25:23;11.63;;;6.65;;
69463;SDS011;56665;41.106;16.688;2022-07-29T08:28:27;6.70;;;6.00;;
69463;SDS011;56665;41.106;16.688;2022-07-29T08:31:32;7.32;;;6.65;;
69463;SDS011;56665;41.106;16.688;2022-07-29T08:34:35;6.90;;;6.13;;
69463;SDS011;56665;41.106;16.688;2022-07-29T08:37:39;9.52;;;5.95;;
69463;SDS011;56665;41.106;16.688;2022-07-29T08:40:43;8.18;;;6.18;;
69463;SDS011;56665;41.106;16.688;2022-07-29T08:43:47;6.40;;;5.80;;
69463;SDS011;56665;41.106;16.688;2022-07-29T08:46:53;11.38;;;6.45;;
69463;SDS011;56665;41.106;16.688;2022-07-29T08:49:57;6.33;;;5.60;;
69463;SDS011;56665;41.106;16.688;2022-07-29T08:53:01;7.38;;;5.50;;
69463;SDS011;56665;41.106;16.688;2022-07-29T08:56:05;8.32;;;6.13;;
69463;SDS011;56665;41.106;16.688;2022-07-29T08:59:10;7.82;;;6.20;;
69463;SDS011;56665;41.106;16.688;2022-07-29T09:02:19;8.43;;;5.70;;
69463;SDS011;56665;41.106;16.688;2022-07-29T09:05:25;8.20;;;5.70;;
69463;SDS011;56665;41.106;16.688;2022-07-29T09:08:31;8.10;;;5.50;;
69463;SDS011;56665;41.106;16.688;2022-07-29T09:11:35;6.57;;;5.43;;
69463;SDS011;56665;41.106;16.688;2022-07-29T09:14:39;7.97;;;5.55;;
69463;SDS011;56665;41.106;16.688;2022-07-29T09:17:48;7.70;;;4.88;;
69463;SDS011;56665;41.106;16.688;2022-07-29T09:20:52;7.77;;;5.13;;
69463;SDS011;56665;41.106;16.688;2022-07-29T09:24:19;13.10;;;5.43;;
69463;SDS011;56665;41.106;16.688;2022-07-29T09:27:23;8.48;;;5.60;;
69463;SDS011;56665;41.106;16.688;2022-07-29T09:30:29;7.43;;;5.90;;
69463;SDS011;56665;41.106;16.688;2022-07-29T09:33:34;8.15;;;5.05;;
69463;SDS011;56665;41.106;16.688;2022-07-29T09:36:43;7.17;;;5.10;;
69463;SDS011;56665;41.106;16.688;2022-07-29T09:39:48;5.55;;;4.80;;
69463;SDS011;56665;41.106;16.688;2022-07-29T09:42:52;8.52;;;4.80;;
69463;SDS011;56665;41.106;16.688;2022-07-29T09:46:09;7.25;;;5.30;;
69463;SDS011;56665;41.106;16.688;2022-07-29T09:49:15;6.28;;;5.13;;
69463;SDS011;56665;41.106;16.688;2022-07-29T09:52:19;12.57;;;5.20;;
69463;SDS011;56665;41.106;16.688;2022-07-29T09:55:23;6.70;;;4.95;;
69463;SDS011;56665;41.106;16.688;2022-07-29T09:58:27;7.70;;;4.68;;
69463;SDS011;56665;41.106;16.688;2022-07-29T10:01:31;7.20;;;4.70;;
69463;SDS011;56665;41.106;16.688;2022-07-29T10:04:39;8.00;;;4.68;;
69463;SDS011;56665;41.106;16.688;2022-07-29T10:07:44;4.97;;;4.23;;
69463;SDS011;56665;41.106;16.688;2022-07-29T10:11:09;7.10;;;4.70;;
69463;SDS011;56665;41.106;16.688;2022-07-29T10:14:15;6.40;;;4.38;;
69463;SDS011;56665;41.106;16.688;2022-07-29T10:17:19;6.40;;;4.20;;
69463;SDS011;56665;41.106;16.688;2022-07-29T10:20:24;6.82;;;4.15;;
69463;SDS011;56665;41.106;16.688;2022-07-29T10:23:29;8.20;;;4.10;;
69463;SDS011;56665;41.106;16.688;2022-07-29T10:26:34;8.07;;;4.63;;
69463;SDS011;56665;41.106;16.688;2022-07-29T10:29:40;8.55;;;4.88;;
69463;SDS011;56665;41.106;16.688;2022-07-29T10:32:51;7.95;;;4.57;;
69463;SDS011;56665;41.106;16.688;2022-07-29T10:42:31;5.57;;;4.45;;
69463;SDS011;56665;41.106;16.688;2022-07-29T10:45:45;7.28;;;4.60;;
69463;SDS011;56665;41.106;16.688;2022-07-29T10:52:22;9.73;;;5.30;;
69463;SDS011;56665;41.106;16.688;2022-07-29T10:58:22;8.57;;;4.53;;
69463;SDS011;56665;41.106;16.688;2022-07-29T11:01:30;6.90;;;4.75;;
69463;SDS011;56665;41.106;16.688;2022-07-29T11:21:00;7.85;;;4.25;;
69463;SDS011;56665;41.106;16.688;2022-07-29T11:24:11;7.28;;;5.03;;
69463;SDS011;56665;41.106;16.688;2022-07-29T11:27:18;6.30;;;4.97;;
69463;SDS011;56665;41.106;16.688;2022-07-29T11:37:36;7.10;;;5.15;;
69463;SDS011;56665;41.106;16.688;2022-07-29T11:40:40;8.50;;;5.65;;
69463;SDS011;56665;41.106;16.688;2022-07-29T11:43:51;6.83;;;4.97;;
69463;SDS011;56665;41.106;16.688;2022-07-29T11:47:00;7.30;;;5.13;;
69463;SDS011;56665;41.106;16.688;2022-07-29T11:50:05;6.53;;;4.95;;
69463;SDS011;56665;41.106;16.688;2022-07-29T11:53:14;7.80;;;5.10;;
69463;SDS011;56665;41.106;16.688;2022-07-29T11:56:18;7.63;;;5.90;;
69463;SDS011;56665;41.106;16.688;2022-07-29T11:59:24;8.37;;;5.23;;
69463;SDS011;56665;41.106;16.688;2022-07-29T12:02:38;6.57;;;4.82;;
69463;SDS011;56665;41.106;16.688;2022-07-29T12:05:45;11.10;;;5.22;;
69463;SDS011;56665;41.106;16.688;2022-07-29T12:08:49;7.45;;;4.72;;
69463;SDS011;56665;41.106;16.688;2022-07-29T12:11:57;5.60;;;4.55;;
69463;SDS011;56665;41.106;16.688;2022-07-29T12:15:12;6.17;;;4.80;;
69463;SDS011;56665;41.106;16.688;2022-07-29T12:18:22;6.93;;;5.20;;
69463;SDS011;56665;41.106;16.688;2022-07-29T12:21:26;9.00;;;5.50;;
69463;SDS011;56665;41.106;16.688;2022-07-29T12:24:42;8.10;;;4.80;;
69463;SDS011;56665;41.106;16.688;2022-07-29T12:27:47;7.60;;;4.75;;
69463;SDS011;56665;41.106;16.688;2022-07-29T12:30:51;7.53;;;4.87;;
69463;SDS011;56665;41.106;16.688;2022-07-29T12:33:55;8.98;;;5.13;;
69463;SDS011;56665;41.106;16.688;2022-07-29T12:37:00;7.13;;;4.70;;
69463;SDS011;56665;41.106;16.688;2022-07-29T12:40:05;6.05;;;4.97;;
69463;SDS011;56665;41.106;16.688;2022-07-29T12:43:12;10.20;;;5.38;;
69463;SDS011;56665;41.106;16.688;2022-07-29T12:46:17;8.30;;;5.20;;
69463;SDS011;56665;41.106;16.688;2022-07-29T12:49:21;5.82;;;5.20;;
69463;SDS011;56665;41.106;16.688;2022-07-29T12:52:28;6.63;;;5.22;;
69463;SDS011;56665;41.106;16.688;2022-07-29T12:55:41;6.20;;;4.57;;
69463;SDS011;56665;41.106;16.688;2022-07-29T12:58:54;6.57;;;5.00;;
69463;SDS011;56665;41.106;16.688;2022-07-29T13:01:58;6.27;;;4.47;;
69463;SDS011;56665;41.106;16.688;2022-07-29T13:05:03;5.30;;;4.05;;
69463;SDS011;56665;41.106;16.688;2022-07-29T13:08:15;4.70;;;3.90;;
69463;SDS011;56665;41.106;16.688;2022-07-29T13:11:33;4.15;;;3.15;;
69463;SDS011;56665;41.106;16.688;2022-07-29T13:14:38;7.38;;;4.10;;
69463;SDS011;56665;41.106;16.688;2022-07-29T13:17:46;5.70;;;3.97;;
69463;SDS011;56665;41.106;16.688;2022-07-29T13:20:50;5.35;;;3.67;;
69463;SDS011;56665;41.106;16.688;2022-07-29T13:23:54;7.13;;;4.15;;
69463;SDS011;56665;41.106;16.688;2022-07-29T13:26:58;8.73;;;3.67;;
69463;SDS011;56665;41.106;16.688;2022-07-29T13:30:03;6.28;;;3.72;;
69463;SDS011;56665;41.106;16.688;2022-07-29T13:33:10;7.40;;;3.20;;
69463;SDS011;56665;41.106;16.688;2022-07-29T13:36:14;5.22;;;3.40;;
69463;SDS011;56665;41.106;16.688;2022-07-29T13:39:18;4.75;;;3.50;;
69463;SDS011;56665;41.106;16.688;2022-07-29T13:42:22;7.20;;;3.80;;
69463;SDS011;56665;41.106;16.688;2022-07-29T13:45:26;6.55;;;4.13;;
69463;SDS011;56665;41.106;16.688;2022-07-29T13:48:30;5.60;;;3.70;;
69463;SDS011;56665;41.106;16.688;2022-07-29T13:51:34;6.50;;;3.78;;
69463;SDS011;56665;41.106;16.688;2022-07-29T13:54:38;5.35;;;3.75;;
69463;SDS011;56665;41.106;16.688;2022-07-29T13:57:43;5.53;;;3.83;;
69463;SDS011;56665;41.106;16.688;2022-07-29T14:00:47;5.28;;;3.75;;
69463;SDS011;56665;41.106;16.688;2022-07-29T14:03:52;7.30;;;3.70;;
69463;SDS011;56665;41.106;16.688;2022-07-29T14:06:57;7.43;;;3.60;;
69463;SDS011;56665;41.106;16.688;2022-07-29T14:10:01;5.60;;;3.90;;
69463;SDS011;56665;41.106;16.688;2022-07-29T14:13:07;4.88;;;3.30;;
69463;SDS011;56665;41.106;16.688;2022-07-29T14:16:10;8.32;;;3.70;;
69463;SDS011;56665;41.106;16.688;2022-07-29T14:19:15;4.70;;;3.73;;
69463;SDS011;56665;41.106;16.688;2022-07-29T14:22:21;6.55;;;3.60;;
69463;SDS011;56665;41.106;16.688;2022-07-29T14:25:25;5.82;;;3.85;;
69463;SDS011;56665;41.106;16.688;2022-07-29T14:28:29;6.07;;;3.38;;
69463;SDS011;56665;41.106;16.688;2022-07-29T14:31:32;5.22;;;3.10;;
69463;SDS011;56665;41.106;16.688;2022-07-29T14:34:38;5.03;;;3.00;;
69463;SDS011;56665;41.106;16.688;2022-07-29T14:37:42;6.10;;;3.25;;
69463;SDS011;56665;41.106;16.688;2022-07-29T14:40:47;4.93;;;3.08;;
69463;SDS011;56665;41.106;16.688;2022-07-29T14:43:51;6.50;;;3.30;;
69463;SDS011;56665;41.106;16.688;2022-07-29T14:46:57;6.43;;;3.45;;
69463;SDS011;56665;41.106;16.688;2022-07-29T14:50:03;6.83;;;3.70;;
69463;SDS011;56665;41.106;16.688;2022-07-29T14:53:08;4.53;;;3.50;;
69463;SDS011;56665;41.106;16.688;2022-07-29T14:56:12;4.28;;;3.15;;
69463;SDS011;56665;41.106;16.688;2022-07-29T14:59:16;7.18;;;3.30;;
69463;SDS011;56665;41.106;16.688;2022-07-29T15:02:20;6.10;;;3.88;;
69463;SDS011;56665;41.106;16.688;2022-07-29T15:05:24;5.90;;;3.60;;
69463;SDS011;56665;41.106;16.688;2022-07-29T15:08:29;4.70;;;3.38;;
69463;SDS011;56665;41.106;16.688;2022-07-29T15:11:34;4.68;;;3.22;;
69463;SDS011;56665;41.106;16.688;2022-07-29T15:14:38;6.93;;;3.80;;
69463;SDS011;56665;41.106;16.688;2022-07-29T15:17:42;7.43;;;3.90;;
69463;SDS011;56665;41.106;16.688;2022-07-29T15:20:46;6.47;;;3.97;;
69463;SDS011;56665;41.106;16.688;2022-07-29T15:23:50;5.18;;;3.88;;
69463;SDS011;56665;41.106;16.688;2022-07-29T15:26:54;6.55;;;4.00;;
69463;SDS011;56665;41.106;16.688;2022-07-29T15:29:57;6.80;;;3.80;;
69463;SDS011;56665;41.106;16.688;2022-07-29T15:33:04;6.10;;;4.13;;
69463;SDS011;56665;41.106;16.688;2022-07-29T15:36:08;5.13;;;3.57;;
69463;SDS011;56665;41.106;16.688;2022-07-29T15:39:13;4.90;;;3.90;;
69463;SDS011;56665;41.106;16.688;2022-07-29T15:42:17;5.28;;;3.65;;
69463;SDS011;56665;41.106;16.688;2022-07-29T15:45:21;4.82;;;3.28;;
69463;SDS011;56665;41.106;16.688;2022-07-29T15:48:25;5.63;;;3.58;;
69463;SDS011;56665;41.106;16.688;2022-07-29T15:51:28;7.87;;;4.10;;
69463;SDS011;56665;41.106;16.688;2022-07-29T15:54:32;6.85;;;4.00;;
69463;SDS011;56665;41.106;16.688;2022-07-29T15:57:37;4.80;;;3.40;;
69463;SDS011;56665;41.106;16.688;2022-07-29T16:00:42;6.10;;;3.58;;
69463;SDS011;56665;41.106;16.688;2022-07-29T16:03:46;4.20;;;3.20;;
69463;SDS011;56665;41.106;16.688;2022-07-29T16:06:51;6.93;;;3.70;;
69463;SDS011;56665;41.106;16.688;2022-07-29T16:09:57;5.47;;;3.17;;
69463;SDS011;56665;41.106;16.688;2022-07-29T16:13:01;3.97;;;2.90;;
69463;SDS011;56665;41.106;16.688;2022-07-29T16:16:07;9.10;;;4.13;;
69463;SDS011;56665;41.106;16.688;2022-07-29T16:19:11;7.32;;;3.92;;
69463;SDS011;56665;41.106;16.688;2022-07-29T16:22:15;5.70;;;3.50;;
69463;SDS011;56665;41.106;16.688;2022-07-29T16:25:18;4.43;;;3.17;;
69463;SDS011;56665;41.106;16.688;2022-07-29T16:28:22;6.07;;;3.35;;
69463;SDS011;56665;41.106;16.688;2022-07-29T16:31:26;6.75;;;3.45;;
69463;SDS011;56665;41.106;16.688;2022-07-29T16:34:30;5.15;;;3.33;;
69463;SDS011;56665;41.106;16.688;2022-07-29T16:37:34;6.75;;;4.00;;
69463;SDS011;56665;41.106;16.688;2022-07-29T16:40:39;8.77;;;3.80;;
69463;SDS011;56665;41.106;16.688;2022-07-29T16:43:43;5.15;;;3.38;;
69463;SDS011;56665;41.106;16.688;2022-07-29T16:46:46;5.60;;;3.33;;
69463;SDS011;56665;41.106;16.688;2022-07-29T16:49:50;5.75;;;3.53;;
69463;SDS011;56665;41.106;16.688;2022-07-29T16:52:54;8.38;;;3.70;;
69463;SDS011;56665;41.106;16.688;2022-07-29T16:56:00;7.27;;;4.10;;
69463;SDS011;56665;41.106;16.688;2022-07-29T16:59:04;5.65;;;3.58;;
69463;SDS011;56665;41.106;16.688;2022-07-29T17:02:08;6.75;;;3.97;;
69463;SDS011;56665;41.106;16.688;2022-07-29T17:05:12;5.38;;;3.72;;
69463;SDS011;56665;41.106;16.688;2022-07-29T17:08:16;6.65;;;3.92;;
69463;SDS011;56665;41.106;16.688;2022-07-29T17:11:20;5.67;;;3.37;;
69463;SDS011;56665;41.106;16.688;2022-07-29T17:14:26;6.30;;;3.28;;
69463;SDS011;56665;41.106;16.688;2022-07-29T17:17:36;7.90;;;3.70;;
69463;SDS011;56665;41.106;16.688;2022-07-29T17:20:40;7.68;;;3.70;;
69463;SDS011;56665;41.106;16.688;2022-07-29T17:23:44;8.45;;;5.15;;
69463;SDS011;56665;41.106;16.688;2022-07-29T17:26:48;7.88;;;5.20;;
69463;SDS011;56665;41.106;16.688;2022-07-29T17:29:52;6.00;;;4.30;;
69463;SDS011;56665;41.106;16.688;2022-07-29T17:32:58;7.30;;;4.82;;
69463;SDS011;56665;41.106;16.688;2022-07-29T17:36:02;7.10;;;4.13;;
69463;SDS011;56665;41.106;16.688;2022-07-29T17:39:26;6.72;;;4.53;;
69463;SDS011;56665;41.106;16.688;2022-07-29T17:42:30;7.47;;;4.47;;
69463;SDS011;56665;41.106;16.688;2022-07-29T17:45:33;4.93;;;3.83;;
69463;SDS011;56665;41.106;16.688;2022-07-29T17:48:37;5.55;;;4.13;;
69463;SDS011;56665;41.106;16.688;2022-07-29T17:51:42;7.00;;;3.92;;
69463;SDS011;56665;41.106;16.688;2022-07-29T17:54:46;5.60;;;3.83;;
69463;SDS011;56665;41.106;16.688;2022-07-29T17:57:51;5.20;;;3.63;;
69463;SDS011;56665;41.106;16.688;2022-07-29T18:00:57;5.47;;;3.33;;
69463;SDS011;56665;41.106;16.688;2022-07-29T18:04:01;5.97;;;3.20;;
69463;SDS011;56665;41.106;16.688;2022-07-29T18:07:05;5.22;;;3.47;;
69463;SDS011;56665;41.106;16.688;2022-07-29T18:10:09;6.45;;;3.35;;
69463;SDS011;56665;41.106;16.688;2022-07-29T18:13:20;7.68;;;4.55;;
69463;SDS011;56665;41.106;16.688;2022-07-29T18:16:25;7.17;;;3.90;;
69463;SDS011;56665;41.106;16.688;2022-07-29T18:19:30;5.45;;;3.80;;
69463;SDS011;56665;41.106;16.688;2022-07-29T18:22:33;5.90;;;4.28;;
69463;SDS011;56665;41.106;16.688;2022-07-29T18:25:37;7.50;;;4.60;;
69463;SDS011;56665;41.106;16.688;2022-07-29T18:28:41;5.80;;;4.05;;
69463;SDS011;56665;41.106;16.688;2022-07-29T18:31:46;6.13;;;3.80;;
69463;SDS011;56665;41.106;16.688;2022-07-29T18:34:50;6.90;;;4.38;;
69463;SDS011;56665;41.106;16.688;2022-07-29T18:37:53;6.88;;;4.43;;
69463;SDS011;56665;41.106;16.688;2022-07-29T18:40:59;5.13;;;3.83;;
69463;SDS011;56665;41.106;16.688;2022-07-29T18:44:03;7.22;;;3.97;;
69463;SDS011;56665;41.106;16.688;2022-07-29T18:47:07;6.33;;;3.60;;
69463;SDS011;56665;41.106;16.688;2022-07-29T18:50:11;6.10;;;3.92;;
69463;SDS011;56665;41.106;16.688;2022-07-29T18:53:14;6.28;;;4.10;;
69463;SDS011;56665;41.106;16.688;2022-07-29T18:56:18;5.40;;;4.00;;
69463;SDS011;56665;41.106;16.688;2022-07-29T18:59:23;5.97;;;4.30;;
69463;SDS011;56665;41.106;16.688;2022-07-29T19:02:30;8.43;;;4.70;;
69463;SDS011;56665;41.106;16.688;2022-07-29T19:05:35;10.18;;;6.00;;